createdAt,value
2018-01-21T00:01:13.466Z,100103.70
2018-01-21T00:03:43.439Z,100112.13
2018-01-21T00:06:13.895Z,100115.58
2018-01-21T00:08:44.304Z,100121.95
2018-01-21T00:11:14.235Z,100119.83
2018-01-21T00:13:44.180Z,100126.58
2018-01-21T00:16:14.099Z,100128.25
2018-01-21T00:18:44.176Z,100129.13
2018-01-21T00:21:14.112Z,100144.31
2018-01-21T00:23:44.307Z,100139.30
2018-01-21T00:26:14.232Z,100139.73
2018-01-21T00:28:44.558Z,100143.55
2018-01-21T00:31:14.480Z,100154.45
2018-01-21T00:33:44.619Z,100153.32
2018-01-21T00:36:14.558Z,100153.23
2018-01-21T00:38:44.938Z,100155.75
2018-01-21T00:41:14.938Z,100160.87
2018-01-21T00:43:44.877Z,100165.14
2018-01-21T00:46:15.127Z,100163.05
2018-01-21T00:48:45.500Z,100164.67
2018-01-21T00:51:15.827Z,100166.00
2018-01-21T00:53:45.846Z,100169.25
2018-01-21T00:56:15.870Z,100178.23
2018-01-21T00:58:45.811Z,100182.52
2018-01-21T01:01:16.594Z,100184.18
2018-01-21T01:03:46.538Z,100187.54
2018-01-21T01:06:16.454Z,100187.59
2018-01-21T01:08:46.418Z,100188.00
2018-01-21T01:11:16.759Z,100187.17
2018-01-21T01:13:47.431Z,100193.46
2018-01-21T01:16:17.400Z,100201.48
2018-01-21T01:18:47.321Z,100207.02
2018-01-21T01:21:17.277Z,100210.40
2018-01-21T01:23:47.245Z,100223.13
2018-01-21T01:26:17.579Z,100220.20
2018-01-21T01:28:48.376Z,100227.39
2018-01-21T01:31:18.350Z,100228.64
2018-01-21T01:33:48.295Z,100229.93
2018-01-21T01:36:18.310Z,100238.39
2018-01-21T01:38:48.230Z,100245.53
2018-01-21T01:41:18.242Z,100246.42
2018-01-21T01:43:48.162Z,100258.27
2018-01-21T01:46:18.183Z,100249.88
2018-01-21T01:48:54.944Z,100256.20
2018-01-21T01:51:24.879Z,100263.75
2018-01-21T01:53:54.794Z,100265.62
2018-01-21T01:56:24.750Z,100270.17
2018-01-21T01:58:55.311Z,100274.70
2018-01-21T02:01:25.606Z,100278.94
2018-01-21T02:03:55.586Z,100281.14
2018-01-21T02:06:25.721Z,100290.34
2018-01-21T02:08:56.293Z,100290.37
2018-01-21T02:11:26.319Z,100288.33
2018-01-21T02:13:56.231Z,100296.34
2018-01-21T02:16:26.388Z,100293.34
2018-01-21T02:18:56.947Z,100301.48
2018-01-21T02:21:26.961Z,100307.80
2018-01-21T02:23:56.898Z,100306.17
2018-01-21T02:26:26.852Z,100308.88
2018-01-21T02:28:56.775Z,100314.23
2018-01-21T02:31:26.750Z,100311.19
2018-01-21T02:33:56.666Z,100319.16
2018-01-21T02:36:26.774Z,100323.75
2018-01-21T02:38:56.701Z,100332.27
2018-01-21T02:41:27.790Z,100334.80
2018-01-21T02:43:57.714Z,100343.67
2018-01-21T02:46:27.732Z,100342.50
2018-01-21T02:48:57.651Z,100344.57
2018-01-21T02:51:27.575Z,100352.17
2018-01-21T02:53:57.504Z,100348.86
2018-01-21T02:56:27.489Z,100350.25
2018-01-21T02:58:57.411Z,100348.47
2018-01-21T03:01:27.370Z,100349.72
2018-01-21T03:03:57.597Z,100352.69
2018-01-21T03:06:27.570Z,100354.78
2018-01-21T03:08:57.599Z,100354.47
2018-01-21T03:11:27.547Z,100353.23
2018-01-21T03:13:57.895Z,100365.85
2018-01-21T03:16:27.956Z,100374.75
2018-01-21T03:18:57.888Z,100378.98
2018-01-21T03:21:28.106Z,100378.05
2018-01-21T03:23:58.062Z,100388.98
2018-01-21T03:26:28.675Z,100392.51
2018-01-21T03:28:58.609Z,100400.11
2018-01-21T03:31:28.924Z,100403.50
2018-01-21T03:33:58.838Z,100404.77
2018-01-21T03:36:29.215Z,100414.48
2018-01-21T03:38:59.155Z,100413.39
2018-01-21T03:41:29.180Z,100420.09
2018-01-21T03:43:59.108Z,100421.34
2018-01-21T03:46:29.138Z,100421.65
2018-01-21T03:48:59.051Z,100425.53
2018-01-21T03:51:29.235Z,100429.75
2018-01-21T03:53:59.198Z,100434.77
2018-01-21T03:56:29.559Z,100438.54
2018-01-21T03:59:00.483Z,100437.30
2018-01-21T04:01:30.430Z,100449.61
2018-01-21T04:04:00.347Z,100451.31
2018-01-21T04:06:30.474Z,100463.13
2018-01-21T04:09:00.409Z,100461.86
2018-01-21T04:11:31.168Z,100464.08
2018-01-21T04:14:03.087Z,100464.46
2018-01-21T04:16:33.039Z,100472.88
2018-01-21T04:19:03.686Z,100480.06
2018-01-21T04:21:33.959Z,100479.33
2018-01-21T04:24:03.974Z,100488.09
2018-01-21T04:26:33.999Z,100485.62
2018-01-21T04:29:04.442Z,100495.36
2018-01-21T04:31:34.664Z,100502.56
2018-01-21T04:34:04.649Z,100522.75
2018-01-21T04:36:34.598Z,100516.90
2018-01-21T04:39:04.510Z,100524.54
2018-01-21T04:41:34.498Z,100525.78
2018-01-21T04:44:04.409Z,100527.92
2018-01-21T04:46:34.479Z,100533.83
2018-01-21T04:49:04.491Z,100534.75
2018-01-21T04:51:34.443Z,100541.95
2018-01-21T04:54:04.354Z,100541.06
2018-01-21T04:56:34.316Z,100545.30
2018-01-21T04:59:04.234Z,100557.14
2018-01-21T05:01:34.198Z,100555.45
2018-01-21T05:04:04.453Z,100560.11
2018-01-21T05:06:34.599Z,100560.44
2018-01-21T05:09:04.515Z,100572.74
2018-01-21T05:11:34.446Z,100569.30
2018-01-21T05:14:04.410Z,100582.48
2018-01-21T05:16:34.374Z,100579.97
2018-01-21T05:19:04.519Z,100590.95
2018-01-21T05:21:34.510Z,100593.47
2018-01-21T05:24:04.538Z,100592.69
2018-01-21T05:26:34.549Z,100597.75
2018-01-21T05:29:04.759Z,100594.02
2018-01-21T05:31:35.567Z,100591.06
2018-01-21T05:34:05.510Z,100604.59
2018-01-21T05:36:35.534Z,100601.58
2018-01-21T05:39:05.462Z,100609.18
2018-01-21T05:41:35.402Z,100611.39
2018-01-21T05:44:06.194Z,100618.06
2018-01-21T05:46:36.119Z,100617.72
2018-01-21T05:49:06.171Z,100621.03
2018-01-21T05:51:36.079Z,100630.76
2018-01-21T05:54:06.806Z,100631.59
2018-01-21T05:56:36.742Z,100640.95
2018-01-21T05:59:06.735Z,100640.11
2018-01-21T06:01:37.183Z,100648.56
2018-01-21T06:04:07.398Z,100654.81
2018-01-21T06:06:37.343Z,100662.91
2018-01-21T06:09:07.299Z,100665.89
2018-01-21T06:11:37.445Z,100664.64
2018-01-21T06:14:07.889Z,100664.62
2018-01-21T06:16:38.726Z,100665.54
2018-01-21T06:19:09.382Z,100666.39
2018-01-21T06:21:40.893Z,100674.01
2018-01-21T06:24:11.230Z,100679.06
2018-01-21T06:26:41.175Z,100682.48
2018-01-21T06:29:11.725Z,100693.03
2018-01-21T06:31:42.080Z,100698.09
2018-01-21T06:34:11.998Z,100707.30
2018-01-21T06:36:42.028Z,100706.95
2018-01-21T06:39:12.164Z,100707.89
2018-01-21T06:41:42.178Z,100715.09
2018-01-21T06:44:12.099Z,100718.87
2018-01-21T06:46:42.091Z,100721.39
2018-01-21T06:49:12.020Z,100729.45
2018-01-21T06:51:41.967Z,100734.42
2018-01-21T06:54:12.177Z,100743.79
2018-01-21T06:56:42.131Z,100751.39
2018-01-21T06:59:12.068Z,100759.08
2018-01-21T07:01:42.100Z,100764.56
2018-01-21T07:04:12.023Z,100777.64
2018-01-21T07:06:42.030Z,100778.52
2018-01-21T07:09:12.151Z,100781.90
2018-01-21T07:11:42.084Z,100789.91
2018-01-21T07:14:12.087Z,100784.48
2018-01-21T07:16:42.011Z,100791.66
2018-01-21T07:19:11.938Z,100794.22
2018-01-21T07:21:41.945Z,100800.98
2018-01-21T07:24:11.858Z,100813.75
2018-01-21T07:26:41.879Z,100820.56
2018-01-21T07:29:12.780Z,100823.03
2018-01-21T07:31:43.216Z,100828.09
2018-01-21T07:34:13.498Z,100834.84
2018-01-21T07:36:44.198Z,100838.62
2018-01-21T07:39:14.115Z,100840.84
2018-01-21T07:41:44.346Z,100844.63
2018-01-21T07:44:14.285Z,100851.80
2018-01-21T07:46:44.490Z,100854.33
2018-01-21T07:49:14.427Z,100859.34
2018-01-21T07:51:44.398Z,100867.94
2018-01-21T07:54:14.430Z,100864.14
2018-01-21T07:56:44.373Z,100870.84
2018-01-21T07:59:14.319Z,100875.08
2018-01-21T08:01:45.028Z,100871.77
2018-01-21T08:04:16.047Z,100883.14
2018-01-21T08:06:45.974Z,100884.41
2018-01-21T08:09:16.188Z,100890.75
2018-01-21T08:11:46.103Z,100894.20
2018-01-21T08:14:16.619Z,100903.87
2018-01-21T08:16:46.584Z,100910.66
2018-01-21T08:19:16.802Z,100914.49
2018-01-21T08:21:46.748Z,100918.63
2018-01-21T08:24:17.023Z,100927.17
2018-01-21T08:26:46.973Z,100935.52
2018-01-21T08:29:17.323Z,100942.28
2018-01-21T08:31:47.388Z,100942.69
2018-01-21T08:34:23.480Z,100951.97
2018-01-21T08:36:59.598Z,100963.80
2018-01-21T08:39:35.059Z,100969.28
2018-01-21T08:42:08.446Z,100966.73
2018-01-21T08:44:38.665Z,100976.48
2018-01-21T08:47:08.583Z,100983.25
2018-01-21T08:49:38.575Z,100985.41
2018-01-21T08:52:08.487Z,100985.42
2018-01-21T08:54:38.674Z,100990.00
2018-01-21T08:57:09.579Z,100992.95
2018-01-21T08:59:39.528Z,101002.22
2018-01-21T09:02:09.971Z,101002.24
2018-01-21T09:04:40.548Z,101001.38
2018-01-21T09:07:10.475Z,101009.00
2018-01-21T09:09:40.488Z,101009.82
2018-01-21T09:12:10.428Z,101021.62
2018-01-21T09:14:40.378Z,101017.78
2018-01-21T09:17:10.840Z,101031.34
2018-01-21T09:19:41.716Z,101027.13
2018-01-21T09:22:11.641Z,101029.61
2018-01-21T09:24:42.131Z,101039.80
2018-01-21T09:27:12.054Z,101039.03
2018-01-21T09:29:42.014Z,101044.10
2018-01-21T09:32:12.492Z,101049.09
2018-01-21T09:34:42.615Z,101050.80
2018-01-21T09:37:12.546Z,101046.64
2018-01-21T09:39:42.759Z,101051.27
2018-01-21T09:42:12.714Z,101056.67
2018-01-21T09:44:42.642Z,101058.38
2018-01-21T09:47:12.597Z,101063.45
2018-01-21T09:49:42.623Z,101068.08
2018-01-21T09:52:12.587Z,101068.53
2018-01-21T09:54:42.535Z,101068.45
2018-01-21T09:57:12.636Z,101074.00
2018-01-21T09:59:42.538Z,101073.09
2018-01-21T10:02:13.228Z,101076.47
2018-01-21T10:04:43.283Z,101079.93
2018-01-21T10:07:13.515Z,101077.36
2018-01-21T10:09:43.450Z,101078.63
2018-01-21T10:12:13.386Z,101082.87
2018-01-21T10:14:43.427Z,101090.83
2018-01-21T10:17:13.794Z,101092.52
2018-01-21T10:19:45.127Z,101094.62
2018-01-21T10:22:15.038Z,101098.43
2018-01-21T10:24:45.011Z,101102.69
2018-01-21T10:27:14.923Z,101096.75
2018-01-21T10:29:45.113Z,101106.88
2018-01-21T10:32:15.323Z,101109.45
2018-01-21T10:34:46.141Z,101117.00
2018-01-21T10:37:17.007Z,101126.26
2018-01-21T10:39:47.294Z,101126.28
2018-01-21T10:42:17.958Z,101126.30
2018-01-21T10:44:47.952Z,101131.28
2018-01-21T10:47:17.897Z,101138.10
2018-01-21T10:49:47.819Z,101136.08
2018-01-21T10:52:18.328Z,101144.92
2018-01-21T10:54:48.239Z,101149.50
2018-01-21T10:57:18.243Z,101154.22
2018-01-21T10:59:48.167Z,101154.16
2018-01-21T11:02:18.130Z,101159.63
2018-01-21T11:04:48.075Z,101164.20
2018-01-21T11:07:18.129Z,101168.49
2018-01-21T11:09:48.970Z,101172.30
2018-01-21T11:12:19.047Z,101170.62
2018-01-21T11:14:49.707Z,101167.23
2018-01-21T11:17:19.715Z,101170.19
2018-01-21T11:19:49.680Z,101174.02
2018-01-21T11:22:20.028Z,101175.69
2018-01-21T11:24:50.309Z,101175.26
2018-01-21T11:27:20.663Z,101175.26
2018-01-21T11:29:51.183Z,101179.91
2018-01-21T11:32:21.141Z,101177.73
2018-01-21T11:34:51.062Z,101180.31
2018-01-21T11:37:21.187Z,101174.33
2018-01-21T11:39:51.103Z,101176.88
2018-01-21T11:42:21.248Z,101176.86
2018-01-21T11:44:51.412Z,101175.66
2018-01-21T11:47:21.674Z,101172.22
2018-01-21T11:49:51.807Z,101174.34
2018-01-21T11:52:21.760Z,101186.60
2018-01-21T11:54:51.844Z,101184.88
2018-01-21T11:57:21.855Z,101184.84
2018-01-21T11:59:51.997Z,101179.41
2018-01-21T12:02:22.300Z,101184.48
2018-01-21T12:04:52.352Z,101183.64
2018-01-21T12:07:22.741Z,101184.47
2018-01-21T12:09:52.659Z,101186.58
2018-01-21T12:12:22.696Z,101189.05
2018-01-21T12:14:52.663Z,101191.67
2018-01-21T12:17:23.067Z,101192.51
2018-01-21T12:19:53.355Z,101196.73
2018-01-21T12:22:23.319Z,101192.55
2018-01-21T12:24:53.243Z,101197.16
2018-01-21T12:27:23.395Z,101192.08
2018-01-21T12:29:53.323Z,101192.91
2018-01-21T12:32:23.359Z,101196.73
2018-01-21T12:34:53.275Z,101196.36
2018-01-21T12:37:23.235Z,101191.28
2018-01-21T12:39:53.185Z,101196.80
2018-01-21T12:42:23.430Z,101198.41
2018-01-21T12:44:53.971Z,101197.14
2018-01-21T12:47:24.892Z,101203.07
2018-01-21T12:49:54.839Z,101206.86
2018-01-21T12:52:25.313Z,101214.88
2018-01-21T12:54:55.459Z,101217.41
2018-01-21T12:57:25.649Z,101223.34
2018-01-21T12:59:57.605Z,101233.46
2018-01-21T13:02:27.544Z,101238.66
2018-01-21T13:04:57.588Z,101237.77
2018-01-21T13:07:29.406Z,101241.56
2018-01-21T13:09:59.478Z,101252.94
2018-01-21T13:12:29.556Z,101250.42
2018-01-21T13:15:00.151Z,101255.91
2018-01-21T13:17:30.642Z,101252.55
2018-01-21T13:20:00.632Z,101258.88
2018-01-21T13:22:30.703Z,101267.75
2018-01-21T13:25:01.509Z,101283.86
2018-01-21T13:27:31.448Z,101279.72
2018-01-21T13:30:01.443Z,101286.34
2018-01-21T13:32:31.907Z,101302.26
2018-01-21T13:35:02.476Z,101305.88
2018-01-21T13:37:32.411Z,101309.69
2018-01-21T13:40:02.492Z,101312.95
2018-01-21T13:42:32.552Z,101298.25
2018-01-21T13:45:02.653Z,101298.59
2018-01-21T13:47:32.634Z,101296.39
2018-01-21T13:50:03.182Z,101299.53
2018-01-21T13:52:33.660Z,101299.56
2018-01-21T13:55:03.606Z,101305.55
2018-01-21T13:57:33.688Z,101306.97
2018-01-21T14:00:03.663Z,101316.80
2018-01-21T14:02:33.732Z,101311.48
2018-01-21T14:05:03.696Z,101312.13
2018-01-21T14:07:34.704Z,101310.36
2018-01-21T14:10:05.531Z,101313.97
2018-01-21T14:12:35.741Z,101319.70
2018-01-21T14:15:06.096Z,101322.04
2018-01-21T14:17:36.191Z,101322.80
2018-01-21T14:20:06.854Z,101324.64
2018-01-21T14:22:36.815Z,101325.37
2018-01-21T14:25:06.756Z,101326.50
2018-01-21T14:27:36.724Z,101322.84
2018-01-21T14:30:06.684Z,101324.73
2018-01-21T14:32:36.924Z,101322.86
2018-01-21T14:35:07.292Z,101325.86
2018-01-21T14:37:37.348Z,101327.45
2018-01-21T14:40:07.288Z,101338.70
2018-01-21T14:42:37.407Z,101334.39
2018-01-21T14:45:07.330Z,101333.48
2018-01-21T14:47:37.292Z,101331.16
2018-01-21T14:50:07.240Z,101334.72
2018-01-21T14:52:37.220Z,101337.47
2018-01-21T14:55:07.932Z,101335.60
